sensor_id;sensor_type;location;lat;lon;timestamp;pressure;altitude;pressure_sealevel;temperature;humidity
8320;BME280;4197;42.130;24.746;2023-12-22T00:00:08;98035.41;;;2.16;100.00
8320;BME280;4197;42.130;24.746;2023-12-22T00:02:36;98039.19;;;2.15;100.00
8320;BME280;4197;42.130;24.746;2023-12-22T00:05:06;98039.75;;;2.21;100.00
8320;BME280;4197;42.130;24.746;2023-12-22T00:07:34;98038.31;;;2.23;100.00
8320;BME280;4197;42.130;24.746;2023-12-22T00:10:03;98028.28;;;2.33;100.00
8320;BME280;4197;42.130;24.746;2023-12-22T00:12:33;98030.06;;;2.29;100.00
8320;BME280;4197;42.130;24.746;2023-12-22T00:15:01;98012.22;;;2.20;100.00
8320;BME280;4197;42.130;24.746;2023-12-22T00:17:29;98009.34;;;2.26;100.00
8320;BME280;4197;42.130;24.746;2023-12-22T00:19:57;98003.88;;;2.22;100.00
8320;BME280;4197;42.130;24.746;2023-12-22T00:22:30;98008.66;;;2.16;100.00
8320;BME280;4197;42.130;24.746;2023-12-22T00:24:58;98006.97;;;2.12;100.00
8320;BME280;4197;42.130;24.746;2023-12-22T00:27:26;98007.97;;;2.07;100.00
8320;BME280;4197;42.130;24.746;2023-12-22T00:29:56;98017.78;;;2.03;100.00
8320;BME280;4197;42.130;24.746;2023-12-22T00:32:25;98018.00;;;2.10;100.00
8320;BME280;4197;42.130;24.746;2023-12-22T00:34:53;98014.22;;;2.11;100.00
8320;BME280;4197;42.130;24.746;2023-12-22T00:37:23;98017.00;;;2.15;100.00
8320;BME280;4197;42.130;24.746;2023-12-22T00:39:51;98008.88;;;2.11;100.00
8320;BME280;4197;42.130;24.746;2023-12-22T00:42:23;98011.41;;;2.08;100.00
8320;BME280;4197;42.130;24.746;2023-12-22T00:44:52;98016.66;;;2.04;100.00
8320;BME280;4197;42.130;24.746;2023-12-22T00:47:22;98010.84;;;2.02;100.00
8320;BME280;4197;42.130;24.746;2023-12-22T00:49:50;98007.53;;;2.05;100.00
8320;BME280;4197;42.130;24.746;2023-12-22T00:52:19;98015.56;;;2.05;100.00
8320;BME280;4197;42.130;24.746;2023-12-22T00:54:47;98013.00;;;2.09;100.00
8320;BME280;4197;42.130;24.746;2023-12-22T00:57:15;98002.63;;;2.07;100.00
8320;BME280;4197;42.130;24.746;2023-12-22T00:59:44;97999.38;;;2.01;100.00
8320;BME280;4197;42.130;24.746;2023-12-22T01:02:15;98001.94;;;1.98;100.00
8320;BME280;4197;42.130;24.746;2023-12-22T01:04:45;97999.03;;;1.91;100.00
8320;BME280;4197;42.130;24.746;2023-12-22T01:07:13;97986.13;;;1.81;100.00
8320;BME280;4197;42.130;24.746;2023-12-22T01:09:42;97976.50;;;1.79;100.00
8320;BME280;4197;42.130;24.746;2023-12-22T01:12:10;97987.41;;;1.74;100.00
8320;BME280;4197;42.130;24.746;2023-12-22T01:14:39;98000.78;;;1.74;100.00
8320;BME280;4197;42.130;24.746;2023-12-22T01:17:07;98004.09;;;1.71;100.00
8320;BME280;4197;42.130;24.746;2023-12-22T01:19:35;97997.53;;;1.69;100.00
8320;BME280;4197;42.130;24.746;2023-12-22T01:22:05;97982.16;;;1.66;100.00
8320;BME280;4197;42.130;24.746;2023-12-22T01:24:33;97982.16;;;1.66;100.00
8320;BME280;4197;42.130;24.746;2023-12-22T01:27:06;97968.69;;;1.62;100.00
8320;BME280;4197;42.130;24.746;2023-12-22T01:29:34;97963.34;;;1.62;100.00
8320;BME280;4197;42.130;24.746;2023-12-22T01:32:04;97966.91;;;1.66;100.00
8320;BME280;4197;42.130;24.746;2023-12-22T01:34:33;97962.38;;;1.67;100.00
8320;BME280;4197;42.130;24.746;2023-12-22T01:37:01;97957.03;;;1.67;100.00
8320;BME280;4197;42.130;24.746;2023-12-22T01:39:31;97950.66;;;1.71;100.00
8320;BME280;4197;42.130;24.746;2023-12-22T01:41:59;97942.34;;;1.73;100.00
8320;BME280;4197;42.130;24.746;2023-12-22T01:44:27;97935.50;;;1.63;100.00
8320;BME280;4197;42.130;24.746;2023-12-22T01:46:56;97928.50;;;1.59;100.00
8320;BME280;4197;42.130;24.746;2023-12-22T01:49:24;97930.06;;;1.60;100.00
8320;BME280;4197;42.130;24.746;2023-12-22T01:51:53;97937.09;;;1.64;100.00
8320;BME280;4197;42.130;24.746;2023-12-22T01:54:21;97927.06;;;1.61;100.00
8320;BME280;4197;42.130;24.746;2023-12-22T01:56:51;97920.03;;;1.56;100.00
8320;BME280;4197;42.130;24.746;2023-12-22T01:59:20;97931.38;;;1.53;100.00
8320;BME280;4197;42.130;24.746;2023-12-22T02:01:48;97923.69;;;1.52;100.00
8320;BME280;4197;42.130;24.746;2023-12-22T02:04:17;97911.44;;;1.51;100.00
8320;BME280;4197;42.130;24.746;2023-12-22T02:06:46;97912.56;;;1.50;100.00
8320;BME280;4197;42.130;24.746;2023-12-22T02:09:14;97911.78;;;1.49;100.00
8320;BME280;4197;42.130;24.746;2023-12-22T02:11:42;97910.34;;;1.52;100.00
8320;BME280;4197;42.130;24.746;2023-12-22T02:14:12;97911.69;;;1.58;100.00
8320;BME280;4197;42.130;24.746;2023-12-22T02:16:45;97914.47;;;1.62;100.00
8320;BME280;4197;42.130;24.746;2023-12-22T02:19:21;97895.13;;;1.65;100.00
8320;BME280;4197;42.130;24.746;2023-12-22T02:22:02;97892.09;;;1.66;100.00
8320;BME280;4197;42.130;24.746;2023-12-22T02:24:36;97918.03;;;1.66;100.00
8320;BME280;4197;42.130;24.746;2023-12-22T02:27:07;97903.59;;;1.67;100.00
8320;BME280;4197;42.130;24.746;2023-12-22T02:29:43;97901.13;;;1.62;100.00
8320;BME280;4197;42.130;24.746;2023-12-22T02:32:20;97899.88;;;1.59;100.00
8320;BME280;4197;42.130;24.746;2023-12-22T02:34:52;97885.09;;;1.62;100.00
8320;BME280;4197;42.130;24.746;2023-12-22T02:37:22;97886.75;;;1.66;100.00
8320;BME280;4197;42.130;24.746;2023-12-22T02:39:53;97872.75;;;1.69;100.00
8320;BME280;4197;42.130;24.746;2023-12-22T02:42:22;97857.03;;;1.68;100.00
8320;BME280;4197;42.130;24.746;2023-12-22T02:44:57;97875.63;;;1.64;100.00
8320;BME280;4197;42.130;24.746;2023-12-22T02:47:26;97890.53;;;1.65;100.00
8320;BME280;4197;42.130;24.746;2023-12-22T02:49:55;97888.44;;;1.71;100.00
8320;BME280;4197;42.130;24.746;2023-12-22T02:52:24;97881.19;;;1.71;100.00
8320;BME280;4197;42.130;24.746;2023-12-22T02:54:54;97876.50;;;1.68;100.00
8320;BME280;4197;42.130;24.746;2023-12-22T02:57:23;97879.53;;;1.67;100.00
8320;BME280;4197;42.130;24.746;2023-12-22T02:59:52;97888.53;;;1.62;100.00
8320;BME280;4197;42.130;24.746;2023-12-22T03:02:20;97891.53;;;1.61;100.00
8320;BME280;4197;42.130;24.746;2023-12-22T03:04:49;97896.00;;;1.69;100.00
8320;BME280;4197;42.130;24.746;2023-12-22T03:07:17;97899.78;;;1.68;100.00
8320;BME280;4197;42.130;24.746;2023-12-22T03:09:45;97898.66;;;1.69;100.00
8320;BME280;4197;42.130;24.746;2023-12-22T03:12:15;97907.13;;;1.71;100.00
8320;BME280;4197;42.130;24.746;2023-12-22T03:14:43;97910.25;;;1.73;100.00
8320;BME280;4197;42.130;24.746;2023-12-22T03:17:12;97897.22;;;1.71;100.00
8320;BME280;4197;42.130;24.746;2023-12-22T03:19:41;97888.44;;;1.71;100.00
8320;BME280;4197;42.130;24.746;2023-12-22T03:22:09;97884.22;;;1.70;100.00
8320;BME280;4197;42.130;24.746;2023-12-22T03:24:38;97875.63;;;1.76;100.00
8320;BME280;4197;42.130;24.746;2023-12-22T03:27:06;97876.97;;;1.83;100.00
8320;BME280;4197;42.130;24.746;2023-12-22T03:29:36;97879.63;;;1.83;100.00
8320;BME280;4197;42.130;24.746;2023-12-22T03:32:05;97886.56;;;1.84;100.00
8320;BME280;4197;42.130;24.746;2023-12-22T03:34:33;97888.34;;;1.92;100.00
8320;BME280;4197;42.130;24.746;2023-12-22T03:37:01;97886.34;;;1.89;100.00
8320;BME280;4197;42.130;24.746;2023-12-22T03:39:30;97885.53;;;1.88;100.00
8320;BME280;4197;42.130;24.746;2023-12-22T03:41:58;97885.22;;;1.90;100.00
8320;BME280;4197;42.130;24.746;2023-12-22T03:44:27;97872.75;;;1.82;100.00
8320;BME280;4197;42.130;24.746;2023-12-22T03:46:56;97865.03;;;1.80;100.00
8320;BME280;4197;42.130;24.746;2023-12-22T03:49:25;97846.44;;;1.71;100.00
8320;BME280;4197;42.130;24.746;2023-12-22T03:51:53;97849.78;;;1.68;100.00
8320;BME280;4197;42.130;24.746;2023-12-22T03:54:21;97851.56;;;1.76;100.00
8320;BME280;4197;42.130;24.746;2023-12-22T03:56:50;97845.47;;;1.64;100.00
8320;BME280;4197;42.130;24.746;2023-12-22T03:59:18;97837.66;;;1.83;100.00
8320;BME280;4197;42.130;24.746;2023-12-22T04:01:50;97834.00;;;1.75;100.00
8320;BME280;4197;42.130;24.746;2023-12-22T04:04:21;97849.34;;;1.78;100.00
8320;BME280;4197;42.130;24.746;2023-12-22T04:06:50;97844.66;;;1.88;100.00
8320;BME280;4197;42.130;24.746;2023-12-22T04:09:18;97837.13;;;1.77;100.00
8320;BME280;4197;42.130;24.746;2023-12-22T04:11:47;97826.88;;;1.67;100.00
8320;BME280;4197;42.130;24.746;2023-12-22T04:14:15;97835.44;;;1.73;100.00
8320;BME280;4197;42.130;24.746;2023-12-22T04:16:45;97824.19;;;1.67;100.00
8320;BME280;4197;42.130;24.746;2023-12-22T04:19:14;97823.28;;;1.63;100.00
8320;BME280;4197;42.130;24.746;2023-12-22T04:21:44;97823.41;;;1.67;100.00
8320;BME280;4197;42.130;24.746;2023-12-22T04:24:12;97835.09;;;1.74;100.00
8320;BME280;4197;42.130;24.746;2023-12-22T04:26:40;97808.81;;;1.76;100.00
8320;BME280;4197;42.130;24.746;2023-12-22T04:29:09;97822.41;;;1.84;100.00
8320;BME280;4197;42.130;24.746;2023-12-22T04:31:37;97817.94;;;1.88;100.00
8320;BME280;4197;42.130;24.746;2023-12-22T04:34:05;97817.59;;;2.01;100.00
8320;BME280;4197;42.130;24.746;2023-12-22T04:36:35;97826.72;;;2.00;100.00
8320;BME280;4197;42.130;24.746;2023-12-22T04:39:05;97836.28;;;2.01;100.00
8320;BME280;4197;42.130;24.746;2023-12-22T04:41:33;97831.41;;;2.04;100.00
8320;BME280;4197;42.130;24.746;2023-12-22T04:44:02;97828.94;;;2.11;100.00
8320;BME280;4197;42.130;24.746;2023-12-22T04:46:30;97839.97;;;2.09;100.00
8320;BME280;4197;42.130;24.746;2023-12-22T04:48:59;97828.59;;;2.12;100.00
8320;BME280;4197;42.130;24.746;2023-12-22T04:51:29;97829.81;;;2.15;100.00
8320;BME280;4197;42.130;24.746;2023-12-22T04:53:57;97830.69;;;2.19;100.00
8320;BME280;4197;42.130;24.746;2023-12-22T04:56:27;97831.13;;;2.21;100.00
8320;BME280;4197;42.130;24.746;2023-12-22T04:58:56;97829.91;;;2.18;100.00
8320;BME280;4197;42.130;24.746;2023-12-22T05:01:24;97823.03;;;2.17;100.00
8320;BME280;4197;42.130;24.746;2023-12-22T05:03:52;97827.81;;;2.12;100.00
8320;BME280;4197;42.130;24.746;2023-12-22T05:06:22;97824.38;;;2.11;100.00
8320;BME280;4197;42.130;24.746;2023-12-22T05:08:50;97835.44;;;2.38;100.00
8320;BME280;4197;42.130;24.746;2023-12-22T05:11:18;97827.25;;;2.18;100.00
8320;BME280;4197;42.130;24.746;2023-12-22T05:13:48;97841.00;;;1.92;100.00
8320;BME280;4197;42.130;24.746;2023-12-22T05:16:17;97831.44;;;1.91;100.00
8320;BME280;4197;42.130;24.746;2023-12-22T05:18:45;97834.00;;;1.75;100.00
8320;BME280;4197;42.130;24.746;2023-12-22T05:21:13;97817.97;;;1.75;100.00
8320;BME280;4197;42.130;24.746;2023-12-22T05:23:42;97827.41;;;1.61;100.00
8320;BME280;4197;42.130;24.746;2023-12-22T05:26:16;97816.41;;;1.62;100.00
8320;BME280;4197;42.130;24.746;2023-12-22T05:28:45;97819.53;;;1.64;100.00
8320;BME280;4197;42.130;24.746;2023-12-22T05:31:15;97818.50;;;1.69;100.00
8320;BME280;4197;42.130;24.746;2023-12-22T05:33:43;97814.72;;;1.45;100.00
8320;BME280;4197;42.130;24.746;2023-12-22T05:36:12;97814.69;;;1.33;100.00
8320;BME280;4197;42.130;24.746;2023-12-22T05:38:40;97821.97;;;1.45;100.00
8320;BME280;4197;42.130;24.746;2023-12-22T05:41:09;97814.06;;;1.48;100.00
8320;BME280;4197;42.130;24.746;2023-12-22T05:43:37;97826.31;;;1.62;100.00
8320;BME280;4197;42.130;24.746;2023-12-22T05:46:06;97818.72;;;1.51;100.00
8320;BME280;4197;42.130;24.746;2023-12-22T05:48:38;97806.59;;;1.42;100.00
8320;BME280;4197;42.130;24.746;2023-12-22T05:51:06;97807.28;;;1.39;100.00
8320;BME280;4197;42.130;24.746;2023-12-22T05:53:40;97797.03;;;1.53;100.00
8320;BME280;4197;42.130;24.746;2023-12-22T05:56:18;97793.56;;;1.65;100.00
8320;BME280;4197;42.130;24.746;2023-12-22T05:58:48;97811.72;;;1.84;100.00
8320;BME280;4197;42.130;24.746;2023-12-22T06:01:17;97818.50;;;1.81;100.00
8320;BME280;4197;42.130;24.746;2023-12-22T06:03:47;97810.13;;;1.83;100.00
8320;BME280;4197;42.130;24.746;2023-12-22T06:06:15;97813.03;;;1.90;100.00
8320;BME280;4197;42.130;24.746;2023-12-22T06:08:45;97812.72;;;1.91;100.00
8320;BME280;4197;42.130;24.746;2023-12-22T06:11:14;97811.91;;;2.03;100.00
8320;BME280;4197;42.130;24.746;2023-12-22T06:13:42;97801.31;;;2.07;100.00
8320;BME280;4197;42.130;24.746;2023-12-22T06:16:12;97803.31;;;2.10;100.00
8320;BME280;4197;42.130;24.746;2023-12-22T06:18:41;97809.44;;;2.10;100.00
8320;BME280;4197;42.130;24.746;2023-12-22T06:21:11;97816.13;;;2.16;100.00
8320;BME280;4197;42.130;24.746;2023-12-22T06:23:41;97834.91;;;2.32;100.00
8320;BME280;4197;42.130;24.746;2023-12-22T06:26:10;97829.94;;;2.46;100.00
8320;BME280;4197;42.130;24.746;2023-12-22T06:28:39;97841.75;;;2.58;100.00
8320;BME280;4197;42.130;24.746;2023-12-22T06:31:08;97838.72;;;2.59;100.00
8320;BME280;4197;42.130;24.746;2023-12-22T06:33:45;97830.69;;;2.31;100.00
8320;BME280;4197;42.130;24.746;2023-12-22T06:36:24;97823.34;;;2.28;100.00
8320;BME280;4197;42.130;24.746;2023-12-22T06:38:53;97818.53;;;2.34;100.00
8320;BME280;4197;42.130;24.746;2023-12-22T06:41:23;97824.66;;;2.62;100.00
8320;BME280;4197;42.130;24.746;2023-12-22T06:43:55;97835.47;;;2.94;100.00
8320;BME280;4197;42.130;24.746;2023-12-22T06:46:24;97845.41;;;3.09;100.00
8320;BME280;4197;42.130;24.746;2023-12-22T06:48:55;97838.84;;;2.91;100.00
8320;BME280;4197;42.130;24.746;2023-12-22T06:51:26;97822.47;;;2.80;100.00
8320;BME280;4197;42.130;24.746;2023-12-22T06:53:57;97815.78;;;2.74;100.00
8320;BME280;4197;42.130;24.746;2023-12-22T06:56:29;97821.59;;;2.76;100.00
8320;BME280;4197;42.130;24.746;2023-12-22T06:58:58;97824.81;;;2.82;100.00
8320;BME280;4197;42.130;24.746;2023-12-22T07:01:28;97823.63;;;2.95;100.00
8320;BME280;4197;42.130;24.746;2023-12-22T07:03:58;97821.84;;;3.15;100.00
8320;BME280;4197;42.130;24.746;2023-12-22T07:06:32;97824.16;;;3.01;100.00
8320;BME280;4197;42.130;24.746;2023-12-22T07:09:32;97828.72;;;3.00;100.00
8320;BME280;4197;42.130;24.746;2023-12-22T07:12:00;97821.31;;;3.09;100.00
8320;BME280;4197;42.130;24.746;2023-12-22T07:14:30;97822.59;;;3.00;100.00
8320;BME280;4197;42.130;24.746;2023-12-22T07:17:01;97835.06;;;3.08;100.00
8320;BME280;4197;42.130;24.746;2023-12-22T07:19:29;97833.94;;;3.09;100.00
8320;BME280;4197;42.130;24.746;2023-12-22T07:22:00;97835.06;;;3.08;100.00
8320;BME280;4197;42.130;24.746;2023-12-22T07:24:29;97836.97;;;3.23;100.00
8320;BME280;4197;42.130;24.746;2023-12-22T07:26:57;97829.53;;;3.48;100.00
8320;BME280;4197;42.130;24.746;2023-12-22T07:29:26;97841.84;;;3.49;100.00
8320;BME280;4197;42.130;24.746;2023-12-22T07:31:54;97822.97;;;3.77;100.00
8320;BME280;4197;42.130;24.746;2023-12-22T07:34:22;97824.25;;;3.68;100.00
8320;BME280;4197;42.130;24.746;2023-12-22T07:36:54;97826.34;;;3.74;100.00
8320;BME280;4197;42.130;24.746;2023-12-22T07:39:34;97820.72;;;3.64;100.00
8320;BME280;4197;42.130;24.746;2023-12-22T07:42:04;97808.44;;;3.63;100.00
8320;BME280;4197;42.130;24.746;2023-12-22T07:44:33;97812.66;;;3.79;100.00
8320;BME280;4197;42.130;24.746;2023-12-22T07:47:02;97812.63;;;3.95;100.00
8320;BME280;4197;42.130;24.746;2023-12-22T07:49:30;97806.94;;;3.81;100.00
8320;BME280;4197;42.130;24.746;2023-12-22T07:51:59;97808.03;;;3.96;100.00
8320;BME280;4197;42.130;24.746;2023-12-22T07:54:29;97815.81;;;4.01;100.00
8320;BME280;4197;42.130;24.746;2023-12-22T07:57:00;97805.53;;;4.03;100.00
8320;BME280;4197;42.130;24.746;2023-12-22T07:59:28;97803.78;;;4.11;100.00
8320;BME280;4197;42.130;24.746;2023-12-22T08:01:58;97807.56;;;4.10;100.00
8320;BME280;4197;42.130;24.746;2023-12-22T08:04:27;97801.28;;;4.02;100.00
8320;BME280;4197;42.130;24.746;2023-12-22T08:06:56;97807.66;;;4.13;100.00
8320;BME280;4197;42.130;24.746;2023-12-22T08:09:24;97797.09;;;4.05;100.00
8320;BME280;4197;42.130;24.746;2023-12-22T08:11:53;97800.59;;;4.05;100.00
8320;BME280;4197;42.130;24.746;2023-12-22T08:14:25;97801.63;;;4.00;100.00
8320;BME280;4197;42.130;24.746;2023-12-22T08:16:53;97807.72;;;4.17;100.00
8320;BME280;4197;42.130;24.746;2023-12-22T08:19:22;97800.63;;;4.24;100.00
8320;BME280;4197;42.130;24.746;2023-12-22T08:21:53;97812.88;;;4.25;100.00
8320;BME280;4197;42.130;24.746;2023-12-22T08:24:22;97818.69;;;4.28;100.00
8320;BME280;4197;42.130;24.746;2023-12-22T08:26:51;97823.78;;;4.52;100.00
8320;BME280;4197;42.130;24.746;2023-12-22T08:29:19;97818.19;;;4.80;97.21
8320;BME280;4197;42.130;24.746;2023-12-22T08:31:50;97823.69;;;4.87;95.70
8320;BME280;4197;42.130;24.746;2023-12-22T08:34:19;97819.94;;;4.92;94.65
8320;BME280;4197;42.130;24.746;2023-12-22T08:36:47;97822.81;;;5.03;93.56
8320;BME280;4197;42.130;24.746;2023-12-22T08:39:16;97829.59;;;5.16;92.37
8320;BME280;4197;42.130;24.746;2023-12-22T08:41:45;97823.38;;;5.12;91.80
8320;BME280;4197;42.130;24.746;2023-12-22T08:44:13;97821.63;;;5.00;92.24
8320;BME280;4197;42.130;24.746;2023-12-22T08:46:42;97822.16;;;5.09;91.12
8320;BME280;4197;42.130;24.746;2023-12-22T08:49:12;97826.00;;;5.08;90.38
8320;BME280;4197;42.130;24.746;2023-12-22T08:51:41;97825.28;;;5.11;89.89
8320;BME280;4197;42.130;24.746;2023-12-22T08:54:09;97827.09;;;5.27;88.91
8320;BME280;4197;42.130;24.746;2023-12-22T08:56:38;97828.59;;;5.24;88.42
8320;BME280;4197;42.130;24.746;2023-12-22T08:59:06;97825.03;;;5.20;89.01
8320;BME280;4197;42.130;24.746;2023-12-22T09:01:36;97828.09;;;5.19;89.87
8320;BME280;4197;42.130;24.746;2023-12-22T09:04:04;97831.91;;;5.18;89.36
8320;BME280;4197;42.130;24.746;2023-12-22T09:06:37;97836.34;;;5.29;89.45
8320;BME280;4197;42.130;24.746;2023-12-22T09:09:06;97829.13;;;5.33;89.37
8320;BME280;4197;42.130;24.746;2023-12-22T09:11:35;97827.09;;;5.27;89.37
8320;BME280;4197;42.130;24.746;2023-12-22T09:14:04;97824.41;;;5.27;89.53
8320;BME280;4197;42.130;24.746;2023-12-22T09:16:37;97825.19;;;5.27;90.48
8320;BME280;4197;42.130;24.746;2023-12-22T09:19:06;97819.81;;;5.27;90.37
8320;BME280;4197;42.130;24.746;2023-12-22T09:21:35;97815.81;;;5.41;90.40
8320;BME280;4197;42.130;24.746;2023-12-22T09:24:05;97814.53;;;5.34;90.76
8320;BME280;4197;42.130;24.746;2023-12-22T09:26:34;97814.66;;;5.42;90.90
8320;BME280;4197;42.130;24.746;2023-12-22T09:29:02;97816.03;;;5.55;89.70
8320;BME280;4197;42.130;24.746;2023-12-22T09:31:30;97817.47;;;5.49;90.54
8320;BME280;4197;42.130;24.746;2023-12-22T09:34:00;97813.00;;;5.33;91.97
8320;BME280;4197;42.130;24.746;2023-12-22T09:36:29;97809.97;;;5.35;91.92
8320;BME280;4197;42.130;24.746;2023-12-22T09:38:58;97810.25;;;5.30;93.19
8320;BME280;4197;42.130;24.746;2023-12-22T09:41:28;97805.06;;;5.41;93.51
8320;BME280;4197;42.130;24.746;2023-12-22T09:43:58;97803.38;;;5.55;93.12
8320;BME280;4197;42.130;24.746;2023-12-22T09:46:30;97814.63;;;5.65;92.26
8320;BME280;4197;42.130;24.746;2023-12-22T09:49:03;97810.84;;;5.66;92.71
8320;BME280;4197;42.130;24.746;2023-12-22T09:51:32;97811.81;;;5.80;92.82
8320;BME280;4197;42.130;24.746;2023-12-22T09:54:02;97811.19;;;6.17;89.64
8320;BME280;4197;42.130;24.746;2023-12-22T09:56:34;97808.56;;;6.21;88.89
8320;BME280;4197;42.130;24.746;2023-12-22T09:59:04;97812.44;;;6.23;89.03
8320;BME280;4197;42.130;24.746;2023-12-22T10:01:33;97814.41;;;6.27;89.10
8320;BME280;4197;42.130;24.746;2023-12-22T10:04:03;97803.28;;;6.28;89.61
8320;BME280;4197;42.130;24.746;2023-12-22T10:06:31;97800.44;;;6.17;91.90
8320;BME280;4197;42.130;24.746;2023-12-22T10:09:00;97800.75;;;6.12;94.71
8320;BME280;4197;42.130;24.746;2023-12-22T10:11:34;97794.25;;;6.13;98.04
8320;BME280;4197;42.130;24.746;2023-12-22T10:14:05;97791.53;;;6.13;98.72
8320;BME280;4197;42.130;24.746;2023-12-22T10:16:34;97797.34;;;6.15;99.33
8320;BME280;4197;42.130;24.746;2023-12-22T10:19:04;97793.59;;;6.23;100.00
8320;BME280;4197;42.130;24.746;2023-12-22T10:21:33;97795.31;;;6.39;100.00
8320;BME280;4197;42.130;24.746;2023-12-22T10:24:02;97795.53;;;6.57;100.00
8320;BME280;4197;42.130;24.746;2023-12-22T10:26:30;97794.88;;;6.67;100.00
8320;BME280;4197;42.130;24.746;2023-12-22T10:29:00;97790.97;;;6.61;100.00
8320;BME280;4197;42.130;24.746;2023-12-22T10:31:39;97786.38;;;6.65;100.00
8320;BME280;4197;42.130;24.746;2023-12-22T10:34:08;97792.06;;;6.56;100.00
8320;BME280;4197;42.130;24.746;2023-12-22T10:36:36;97803.38;;;6.69;100.00
8320;BME280;4197;42.130;24.746;2023-12-22T10:39:05;97792.56;;;6.65;100.00
8320;BME280;4197;42.130;24.746;2023-12-22T10:41:34;97792.50;;;6.62;100.00
8320;BME280;4197;42.130;24.746;2023-12-22T10:44:04;97784.81;;;6.60;100.00
8320;BME280;4197;42.130;24.746;2023-12-22T10:46:33;97789.88;;;6.65;100.00
8320;BME280;4197;42.130;24.746;2023-12-22T10:49:02;97800.28;;;6.67;100.00
8320;BME280;4197;42.130;24.746;2023-12-22T10:51:31;97800.97;;;6.60;100.00
8320;BME280;4197;42.130;24.746;2023-12-22T10:54:00;97797.13;;;6.61;100.00
8320;BME280;4197;42.130;24.746;2023-12-22T10:56:28;97793.31;;;6.62;100.00
8320;BME280;4197;42.130;24.746;2023-12-22T10:58:56;97790.09;;;6.53;100.00
8320;BME280;4197;42.130;24.746;2023-12-22T11:01:28;97793.25;;;6.59;100.00
8320;BME280;4197;42.130;24.746;2023-12-22T11:04:01;97785.91;;;6.56;100.00
8320;BME280;4197;42.130;24.746;2023-12-22T11:06:32;97779.00;;;6.58;100.00
8320;BME280;4197;42.130;24.746;2023-12-22T11:09:06;97767.09;;;6.59;100.00
8320;BME280;4197;42.130;24.746;2023-12-22T11:11:37;97762.50;;;6.60;100.00
8320;BME280;4197;42.130;24.746;2023-12-22T11:14:06;97751.81;;;6.70;100.00
8320;BME280;4197;42.130;24.746;2023-12-22T11:16:38;97748.44;;;6.77;100.00
8320;BME280;4197;42.130;24.746;2023-12-22T11:19:14;97738.94;;;6.90;100.00
8320;BME280;4197;42.130;24.746;2023-12-22T11:21:43;97738.25;;;7.01;100.00
8320;BME280;4197;42.130;24.746;2023-12-22T11:24:13;97738.34;;;7.11;100.00
8320;BME280;4197;42.130;24.746;2023-12-22T11:26:42;97725.41;;;7.31;100.00
8320;BME280;4197;42.130;24.746;2023-12-22T11:29:11;97712.09;;;7.56;100.00
8320;BME280;4197;42.130;24.746;2023-12-22T11:31:43;97709.47;;;7.64;100.00
8320;BME280;4197;42.130;24.746;2023-12-22T11:34:13;97700.31;;;7.82;100.00
8320;BME280;4197;42.130;24.746;2023-12-22T11:36:46;97688.81;;;8.03;100.00
8320;BME280;4197;42.130;24.746;2023-12-22T11:39:16;97692.38;;;8.25;100.00
8320;BME280;4197;42.130;24.746;2023-12-22T11:41:44;97678.91;;;8.36;100.00
8320;BME280;4197;42.130;24.746;2023-12-22T11:44:16;97675.13;;;8.52;100.00
8320;BME280;4197;42.130;24.746;2023-12-22T11:46:46;97665.88;;;8.60;100.00
8320;BME280;4197;42.130;24.746;2023-12-22T11:49:15;97677.09;;;8.69;100.00
8320;BME280;4197;42.130;24.746;2023-12-22T11:51:44;97673.59;;;8.72;100.00
8320;BME280;4197;42.130;24.746;2023-12-22T11:54:43;97675.94;;;8.77;100.00
8320;BME280;4197;42.130;24.746;2023-12-22T11:57:30;97676.72;;;8.85;100.00
8320;BME280;4197;42.130;24.746;2023-12-22T12:00:02;97669.38;;;9.00;100.00
8320;BME280;4197;42.130;24.746;2023-12-22T12:02:34;97656.25;;;9.16;100.00
8320;BME280;4197;42.130;24.746;2023-12-22T12:05:07;97639.63;;;9.21;100.00
8320;BME280;4197;42.130;24.746;2023-12-22T12:07:40;97634.63;;;9.23;100.00
8320;BME280;4197;42.130;24.746;2023-12-22T12:10:11;97633.44;;;9.28;100.00
8320;BME280;4197;42.130;24.746;2023-12-22T12:12:41;97638.06;;;9.27;100.00
8320;BME280;4197;42.130;24.746;2023-12-22T12:15:15;97635.75;;;9.33;100.00
8320;BME280;4197;42.130;24.746;2023-12-22T12:17:48;97647.69;;;9.39;100.00
8320;BME280;4197;42.130;24.746;2023-12-22T12:20:16;97637.66;;;9.47;100.00
8320;BME280;4197;42.130;24.746;2023-12-22T12:22:46;97639.59;;;9.43;100.00
8320;BME280;4197;42.130;24.746;2023-12-22T12:25:14;97642.69;;;9.41;100.00
8320;BME280;4197;42.130;24.746;2023-12-22T12:28:01;97654.28;;;9.49;100.00
8320;BME280;4197;42.130;24.746;2023-12-22T12:30:30;97645.75;;;9.50;100.00
8320;BME280;4197;42.130;24.746;2023-12-22T12:33:06;97654.66;;;9.47;100.00
8320;BME280;4197;42.130;24.746;2023-12-22T12:35:36;97655.81;;;9.50;100.00
8320;BME280;4197;42.130;24.746;2023-12-22T12:38:11;97658.16;;;9.48;100.00
8320;BME280;4197;42.130;24.746;2023-12-22T12:40:40;97652.72;;;9.48;100.00
8320;BME280;4197;42.130;24.746;2023-12-22T12:43:09;97668.19;;;9.51;100.00
8320;BME280;4197;42.130;24.746;2023-12-22T12:45:38;97677.47;;;9.53;99.96
8320;BME280;4197;42.130;24.746;2023-12-22T12:48:08;97679.38;;;9.60;99.57
8320;BME280;4197;42.130;24.746;2023-12-22T12:50:36;97682.81;;;9.71;96.60
8320;BME280;4197;42.130;24.746;2023-12-22T12:53:05;97690.13;;;9.78;96.67
8320;BME280;4197;42.130;24.746;2023-12-22T12:55:34;97697.09;;;9.82;94.28
8320;BME280;4197;42.130;24.746;2023-12-22T12:58:03;97692.84;;;9.81;94.50
8320;BME280;4197;42.130;24.746;2023-12-22T13:00:33;97706.00;;;9.79;96.03
8320;BME280;4197;42.130;24.746;2023-12-22T13:03:05;97706.38;;;9.81;97.35
8320;BME280;4197;42.130;24.746;2023-12-22T13:05:35;97715.28;;;9.82;97.50
8320;BME280;4197;42.130;24.746;2023-12-22T13:08:08;97706.00;;;9.87;96.97
8320;BME280;4197;42.130;24.746;2023-12-22T13:10:36;97716.03;;;9.86;98.00
8320;BME280;4197;42.130;24.746;2023-12-22T13:13:05;97719.91;;;9.92;98.18
8320;BME280;4197;42.130;24.746;2023-12-22T13:15:33;97720.66;;;9.96;98.50
8320;BME280;4197;42.130;24.746;2023-12-22T13:18:02;97709.44;;;9.91;99.71
8320;BME280;4197;42.130;24.746;2023-12-22T13:20:31;97706.75;;;9.91;99.08
8320;BME280;4197;42.130;24.746;2023-12-22T13:23:03;97716.78;;;9.94;98.59
8320;BME280;4197;42.130;24.746;2023-12-22T13:25:38;97707.50;;;9.95;98.91